sensor_id;sensor_type;location;lat;lon;timestamp;temperature;humidity
17740;DHT22;8990;33.226;-97.150;2023-11-21T00:00:16;18.20;99.90
17740;DHT22;8990;33.226;-97.150;2023-11-21T00:02:45;18.10;99.90
17740;DHT22;8990;33.226;-97.150;2023-11-21T00:05:14;18.10;99.90
17740;DHT22;8990;33.226;-97.150;2023-11-21T00:07:43;18.10;99.90
17740;DHT22;8990;33.226;-97.150;2023-11-21T00:10:13;18.00;99.90
17740;DHT22;8990;33.226;-97.150;2023-11-21T00:12:42;18.00;99.90
17740;DHT22;8990;33.226;-97.150;2023-11-21T00:15:11;17.90;99.90
17740;DHT22;8990;33.226;-97.150;2023-11-21T00:17:42;17.80;99.90
17740;DHT22;8990;33.226;-97.150;2023-11-21T00:20:11;17.80;99.90
17740;DHT22;8990;33.226;-97.150;2023-11-21T00:22:40;17.70;99.90
17740;DHT22;8990;33.226;-97.150;2023-11-21T00:25:09;17.60;99.90
17740;DHT22;8990;33.226;-97.150;2023-11-21T00:27:38;17.60;99.90
17740;DHT22;8990;33.226;-97.150;2023-11-21T00:30:07;17.50;99.90
17740;DHT22;8990;33.226;-97.150;2023-11-21T00:32:36;17.40;99.90
17740;DHT22;8990;33.226;-97.150;2023-11-21T00:35:07;17.40;99.90
17740;DHT22;8990;33.226;-97.150;2023-11-21T00:37:37;17.30;99.90
17740;DHT22;8990;33.226;-97.150;2023-11-21T00:40:07;17.30;99.90
17740;DHT22;8990;33.226;-97.150;2023-11-21T00:42:36;17.30;99.90
17740;DHT22;8990;33.226;-97.150;2023-11-21T00:45:07;17.20;99.90
17740;DHT22;8990;33.226;-97.150;2023-11-21T00:47:36;17.20;99.90
17740;DHT22;8990;33.226;-97.150;2023-11-21T00:50:07;17.10;99.90
17740;DHT22;8990;33.226;-97.150;2023-11-21T00:52:36;17.20;99.90
17740;DHT22;8990;33.226;-97.150;2023-11-21T00:55:06;17.10;99.90
17740;DHT22;8990;33.226;-97.150;2023-11-21T00:57:35;17.00;99.90
17740;DHT22;8990;33.226;-97.150;2023-11-21T01:00:05;17.00;99.90
17740;DHT22;8990;33.226;-97.150;2023-11-21T01:02:36;17.00;99.90
17740;DHT22;8990;33.226;-97.150;2023-11-21T01:05:07;17.00;99.90
17740;DHT22;8990;33.226;-97.150;2023-11-21T01:07:36;16.90;99.90
17740;DHT22;8990;33.226;-97.150;2023-11-21T01:10:06;16.80;99.90
17740;DHT22;8990;33.226;-97.150;2023-11-21T01:12:36;16.70;99.90
17740;DHT22;8990;33.226;-97.150;2023-11-21T01:15:06;16.60;99.90
17740;DHT22;8990;33.226;-97.150;2023-11-21T01:17:35;16.40;99.90
17740;DHT22;8990;33.226;-97.150;2023-11-21T01:20:07;16.40;99.90
17740;DHT22;8990;33.226;-97.150;2023-11-21T01:22:39;16.30;99.90
17740;DHT22;8990;33.226;-97.150;2023-11-21T01:25:08;16.30;99.90
17740;DHT22;8990;33.226;-97.150;2023-11-21T01:27:37;16.20;99.90
17740;DHT22;8990;33.226;-97.150;2023-11-21T01:30:07;16.10;99.90
17740;DHT22;8990;33.226;-97.150;2023-11-21T01:32:37;16.10;99.90
17740;DHT22;8990;33.226;-97.150;2023-11-21T01:35:08;16.00;99.90
17740;DHT22;8990;33.226;-97.150;2023-11-21T01:37:37;16.00;99.90
17740;DHT22;8990;33.226;-97.150;2023-11-21T01:40:07;15.90;99.90
17740;DHT22;8990;33.226;-97.150;2023-11-21T01:42:39;15.80;99.90
17740;DHT22;8990;33.226;-97.150;2023-11-21T01:45:08;15.80;99.90
17740;DHT22;8990;33.226;-97.150;2023-11-21T01:47:39;15.80;99.90
17740;DHT22;8990;33.226;-97.150;2023-11-21T01:50:15;15.70;99.90
17740;DHT22;8990;33.226;-97.150;2023-11-21T01:52:45;15.70;99.90
17740;DHT22;8990;33.226;-97.150;2023-11-21T01:55:16;15.70;99.90
17740;DHT22;8990;33.226;-97.150;2023-11-21T01:57:46;15.60;99.90
17740;DHT22;8990;33.226;-97.150;2023-11-21T02:00:16;15.50;99.90
17740;DHT22;8990;33.226;-97.150;2023-11-21T02:02:47;15.40;99.90
17740;DHT22;8990;33.226;-97.150;2023-11-21T02:05:19;15.30;99.90
17740;DHT22;8990;33.226;-97.150;2023-11-21T02:07:48;15.20;99.90
17740;DHT22;8990;33.226;-97.150;2023-11-21T02:10:19;15.20;99.90
17740;DHT22;8990;33.226;-97.150;2023-11-21T02:12:50;15.20;99.90
17740;DHT22;8990;33.226;-97.150;2023-11-21T02:15:19;15.20;99.90
17740;DHT22;8990;33.226;-97.150;2023-11-21T02:17:50;15.10;99.90
17740;DHT22;8990;33.226;-97.150;2023-11-21T02:20:22;15.00;99.90
17740;DHT22;8990;33.226;-97.150;2023-11-21T02:22:53;14.90;99.90
17740;DHT22;8990;33.226;-97.150;2023-11-21T02:25:25;14.80;99.90
17740;DHT22;8990;33.226;-97.150;2023-11-21T02:27:55;14.80;99.90
17740;DHT22;8990;33.226;-97.150;2023-11-21T02:30:24;14.70;99.90
17740;DHT22;8990;33.226;-97.150;2023-11-21T02:32:55;14.60;99.90
17740;DHT22;8990;33.226;-97.150;2023-11-21T02:35:26;14.60;99.90
17740;DHT22;8990;33.226;-97.150;2023-11-21T02:37:56;14.50;99.90
17740;DHT22;8990;33.226;-97.150;2023-11-21T02:40:25;14.50;99.90
17740;DHT22;8990;33.226;-97.150;2023-11-21T02:42:54;14.40;99.90
17740;DHT22;8990;33.226;-97.150;2023-11-21T02:45:25;14.40;99.90
17740;DHT22;8990;33.226;-97.150;2023-11-21T02:47:54;14.40;99.90
17740;DHT22;8990;33.226;-97.150;2023-11-21T02:50:23;14.30;99.90
17740;DHT22;8990;33.226;-97.150;2023-11-21T02:52:52;14.30;99.90
17740;DHT22;8990;33.226;-97.150;2023-11-21T02:55:23;14.30;99.90
17740;DHT22;8990;33.226;-97.150;2023-11-21T02:57:53;14.30;99.90
17740;DHT22;8990;33.226;-97.150;2023-11-21T03:00:23;14.20;99.90
17740;DHT22;8990;33.226;-97.150;2023-11-21T03:02:53;14.10;99.90
17740;DHT22;8990;33.226;-97.150;2023-11-21T03:05:22;14.10;99.90
17740;DHT22;8990;33.226;-97.150;2023-11-21T03:07:51;14.10;99.90
17740;DHT22;8990;33.226;-97.150;2023-11-21T03:10:20;14.00;99.90
17740;DHT22;8990;33.226;-97.150;2023-11-21T03:12:51;14.10;99.90
17740;DHT22;8990;33.226;-97.150;2023-11-21T03:15:20;14.00;99.90
17740;DHT22;8990;33.226;-97.150;2023-11-21T03:17:49;13.90;99.90
17740;DHT22;8990;33.226;-97.150;2023-11-21T03:20:18;13.90;99.90
17740;DHT22;8990;33.226;-97.150;2023-11-21T03:22:47;13.90;99.90
17740;DHT22;8990;33.226;-97.150;2023-11-21T03:25:16;13.80;99.90
17740;DHT22;8990;33.226;-97.150;2023-11-21T03:27:45;13.80;99.90
17740;DHT22;8990;33.226;-97.150;2023-11-21T03:30:16;13.70;99.90
17740;DHT22;8990;33.226;-97.150;2023-11-21T03:32:45;13.60;99.90
17740;DHT22;8990;33.226;-97.150;2023-11-21T03:35:15;13.70;99.90
17740;DHT22;8990;33.226;-97.150;2023-11-21T03:37:44;13.60;99.90
17740;DHT22;8990;33.226;-97.150;2023-11-21T03:40:13;13.60;99.90
17740;DHT22;8990;33.226;-97.150;2023-11-21T03:42:42;13.60;99.90
17740;DHT22;8990;33.226;-97.150;2023-11-21T03:45:11;13.40;99.90
17740;DHT22;8990;33.226;-97.150;2023-11-21T03:47:43;13.40;99.90
17740;DHT22;8990;33.226;-97.150;2023-11-21T03:50:12;13.50;99.90
17740;DHT22;8990;33.226;-97.150;2023-11-21T03:52:41;13.30;99.90
17740;DHT22;8990;33.226;-97.150;2023-11-21T03:55:11;13.30;99.90
17740;DHT22;8990;33.226;-97.150;2023-11-21T03:57:43;13.30;99.90
17740;DHT22;8990;33.226;-97.150;2023-11-21T04:00:13;13.20;99.90
17740;DHT22;8990;33.226;-97.150;2023-11-21T04:02:44;13.20;99.90
17740;DHT22;8990;33.226;-97.150;2023-11-21T04:05:14;13.20;99.90
17740;DHT22;8990;33.226;-97.150;2023-11-21T04:07:43;13.10;99.90
17740;DHT22;8990;33.226;-97.150;2023-11-21T04:10:12;13.10;99.90
17740;DHT22;8990;33.226;-97.150;2023-11-21T04:12:42;13.00;99.90
17740;DHT22;8990;33.226;-97.150;2023-11-21T04:15:12;13.00;99.90
17740;DHT22;8990;33.226;-97.150;2023-11-21T04:17:43;12.90;99.90
17740;DHT22;8990;33.226;-97.150;2023-11-21T04:20:12;12.90;99.90
17740;DHT22;8990;33.226;-97.150;2023-11-21T04:22:42;12.90;99.90
17740;DHT22;8990;33.226;-97.150;2023-11-21T04:25:13;12.90;99.90
17740;DHT22;8990;33.226;-97.150;2023-11-21T04:27:43;12.80;99.90
17740;DHT22;8990;33.226;-97.150;2023-11-21T04:30:13;12.70;99.90
17740;DHT22;8990;33.226;-97.150;2023-11-21T04:32:44;12.70;99.90
17740;DHT22;8990;33.226;-97.150;2023-11-21T04:35:13;12.60;99.90
17740;DHT22;8990;33.226;-97.150;2023-11-21T04:37:42;12.70;99.90
17740;DHT22;8990;33.226;-97.150;2023-11-21T04:40:12;12.70;99.90
17740;DHT22;8990;33.226;-97.150;2023-11-21T04:42:40;12.50;99.90
17740;DHT22;8990;33.226;-97.150;2023-11-21T04:45:10;12.50;99.90
17740;DHT22;8990;33.226;-97.150;2023-11-21T04:47:38;12.60;99.90
17740;DHT22;8990;33.226;-97.150;2023-11-21T04:50:10;12.50;99.90
17740;DHT22;8990;33.226;-97.150;2023-11-21T04:52:39;12.50;99.90
17740;DHT22;8990;33.226;-97.150;2023-11-21T04:55:08;12.50;99.90
17740;DHT22;8990;33.226;-97.150;2023-11-21T04:57:37;12.50;99.90
17740;DHT22;8990;33.226;-97.150;2023-11-21T05:00:09;12.50;99.90
17740;DHT22;8990;33.226;-97.150;2023-11-21T05:02:39;12.50;99.90
17740;DHT22;8990;33.226;-97.150;2023-11-21T05:05:10;12.50;99.90
17740;DHT22;8990;33.226;-97.150;2023-11-21T05:07:39;12.60;99.90
17740;DHT22;8990;33.226;-97.150;2023-11-21T05:10:09;12.60;99.90
17740;DHT22;8990;33.226;-97.150;2023-11-21T05:12:41;12.70;99.90
17740;DHT22;8990;33.226;-97.150;2023-11-21T05:15:14;12.60;99.90
17740;DHT22;8990;33.226;-97.150;2023-11-21T05:17:43;12.60;99.90
17740;DHT22;8990;33.226;-97.150;2023-11-21T05:20:14;12.80;99.90
17740;DHT22;8990;33.226;-97.150;2023-11-21T05:22:44;12.70;99.90
17740;DHT22;8990;33.226;-97.150;2023-11-21T05:25:13;12.70;99.90
17740;DHT22;8990;33.226;-97.150;2023-11-21T05:27:42;12.70;99.90
17740;DHT22;8990;33.226;-97.150;2023-11-21T05:30:13;12.60;99.90
17740;DHT22;8990;33.226;-97.150;2023-11-21T05:32:42;12.70;99.90
17740;DHT22;8990;33.226;-97.150;2023-11-21T05:35:10;12.70;99.90
17740;DHT22;8990;33.226;-97.150;2023-11-21T05:37:44;12.70;99.90
17740;DHT22;8990;33.226;-97.150;2023-11-21T05:40:14;12.80;99.90
17740;DHT22;8990;33.226;-97.150;2023-11-21T05:42:43;12.80;99.90
17740;DHT22;8990;33.226;-97.150;2023-11-21T05:45:12;12.80;99.90
17740;DHT22;8990;33.226;-97.150;2023-11-21T05:47:43;12.80;99.90
17740;DHT22;8990;33.226;-97.150;2023-11-21T05:50:13;12.80;99.90
17740;DHT22;8990;33.226;-97.150;2023-11-21T05:52:45;12.80;99.90
17740;DHT22;8990;33.226;-97.150;2023-11-21T05:55:14;12.80;99.90
17740;DHT22;8990;33.226;-97.150;2023-11-21T05:57:44;12.80;99.90
17740;DHT22;8990;33.226;-97.150;2023-11-21T06:00:14;12.80;99.90
17740;DHT22;8990;33.226;-97.150;2023-11-21T06:02:47;12.80;99.90
17740;DHT22;8990;33.226;-97.150;2023-11-21T06:05:17;12.70;99.90
17740;DHT22;8990;33.226;-97.150;2023-11-21T06:07:48;12.70;99.90
17740;DHT22;8990;33.226;-97.150;2023-11-21T06:10:17;12.60;99.90
17740;DHT22;8990;33.226;-97.150;2023-11-21T06:12:46;12.60;99.90
17740;DHT22;8990;33.226;-97.150;2023-11-21T06:15:15;12.60;99.90
17740;DHT22;8990;33.226;-97.150;2023-11-21T06:17:46;12.50;99.90
17740;DHT22;8990;33.226;-97.150;2023-11-21T06:20:19;12.50;99.90
17740;DHT22;8990;33.226;-97.150;2023-11-21T06:22:50;12.50;99.90
17740;DHT22;8990;33.226;-97.150;2023-11-21T06:25:19;12.40;99.90
17740;DHT22;8990;33.226;-97.150;2023-11-21T06:27:48;12.40;99.90
17740;DHT22;8990;33.226;-97.150;2023-11-21T06:30:18;12.50;99.90
17740;DHT22;8990;33.226;-97.150;2023-11-21T06:32:48;12.50;99.90
17740;DHT22;8990;33.226;-97.150;2023-11-21T06:35:18;12.40;99.90
17740;DHT22;8990;33.226;-97.150;2023-11-21T06:37:48;12.20;99.90
17740;DHT22;8990;33.226;-97.150;2023-11-21T06:40:20;12.30;99.90
17740;DHT22;8990;33.226;-97.150;2023-11-21T06:42:49;12.30;99.90
17740;DHT22;8990;33.226;-97.150;2023-11-21T06:45:18;12.30;99.90
17740;DHT22;8990;33.226;-97.150;2023-11-21T06:47:47;12.30;99.90
17740;DHT22;8990;33.226;-97.150;2023-11-21T06:50:16;12.20;99.90
17740;DHT22;8990;33.226;-97.150;2023-11-21T06:52:45;12.20;99.90
17740;DHT22;8990;33.226;-97.150;2023-11-21T06:55:17;12.10;99.90
17740;DHT22;8990;33.226;-97.150;2023-11-21T06:57:46;12.00;99.90
17740;DHT22;8990;33.226;-97.150;2023-11-21T07:00:17;12.00;99.90
17740;DHT22;8990;33.226;-97.150;2023-11-21T07:02:46;12.00;99.90
17740;DHT22;8990;33.226;-97.150;2023-11-21T07:05:16;11.90;99.90
17740;DHT22;8990;33.226;-97.150;2023-11-21T07:07:47;11.90;99.90
17740;DHT22;8990;33.226;-97.150;2023-11-21T07:10:18;11.90;99.90
17740;DHT22;8990;33.226;-97.150;2023-11-21T07:12:47;11.80;99.90
17740;DHT22;8990;33.226;-97.150;2023-11-21T07:15:16;11.80;99.90
17740;DHT22;8990;33.226;-97.150;2023-11-21T07:17:46;11.70;99.90
17740;DHT22;8990;33.226;-97.150;2023-11-21T07:20:15;11.70;99.90
17740;DHT22;8990;33.226;-97.150;2023-11-21T07:22:45;11.70;99.90
17740;DHT22;8990;33.226;-97.150;2023-11-21T07:25:14;11.70;99.90
17740;DHT22;8990;33.226;-97.150;2023-11-21T07:27:45;11.70;99.90
17740;DHT22;8990;33.226;-97.150;2023-11-21T07:30:14;11.70;99.90
17740;DHT22;8990;33.226;-97.150;2023-11-21T07:32:43;11.60;99.90
17740;DHT22;8990;33.226;-97.150;2023-11-21T07:35:15;11.60;99.90
17740;DHT22;8990;33.226;-97.150;2023-11-21T07:37:43;11.70;99.90
17740;DHT22;8990;33.226;-97.150;2023-11-21T07:40:14;11.60;99.90
17740;DHT22;8990;33.226;-97.150;2023-11-21T07:42:45;11.70;99.90
17740;DHT22;8990;33.226;-97.150;2023-11-21T07:45:14;11.60;99.90
17740;DHT22;8990;33.226;-97.150;2023-11-21T07:47:43;11.50;99.90
17740;DHT22;8990;33.226;-97.150;2023-11-21T07:50:12;11.50;99.90
17740;DHT22;8990;33.226;-97.150;2023-11-21T07:52:40;11.50;99.90
17740;DHT22;8990;33.226;-97.150;2023-11-21T07:55:10;11.50;99.90
17740;DHT22;8990;33.226;-97.150;2023-11-21T07:57:38;11.50;99.90
17740;DHT22;8990;33.226;-97.150;2023-11-21T08:00:10;11.60;99.90
17740;DHT22;8990;33.226;-97.150;2023-11-21T08:02:40;11.60;99.90
17740;DHT22;8990;33.226;-97.150;2023-11-21T08:05:09;11.60;99.90
17740;DHT22;8990;33.226;-97.150;2023-11-21T08:07:39;11.50;99.90
17740;DHT22;8990;33.226;-97.150;2023-11-21T08:10:08;11.60;99.90
17740;DHT22;8990;33.226;-97.150;2023-11-21T08:12:39;11.60;99.90
17740;DHT22;8990;33.226;-97.150;2023-11-21T08:15:11;11.50;99.90
17740;DHT22;8990;33.226;-97.150;2023-11-21T08:17:40;11.50;99.90
17740;DHT22;8990;33.226;-97.150;2023-11-21T08:20:10;11.60;99.90
17740;DHT22;8990;33.226;-97.150;2023-11-21T08:22:39;11.50;99.90
17740;DHT22;8990;33.226;-97.150;2023-11-21T08:25:09;11.60;99.90
17740;DHT22;8990;33.226;-97.150;2023-11-21T08:27:38;11.60;99.90
17740;DHT22;8990;33.226;-97.150;2023-11-21T08:30:07;11.50;99.90
17740;DHT22;8990;33.226;-97.150;2023-11-21T08:32:38;11.60;99.90
17740;DHT22;8990;33.226;-97.150;2023-11-21T08:35:08;11.50;99.90
17740;DHT22;8990;33.226;-97.150;2023-11-21T08:37:37;11.60;99.90
17740;DHT22;8990;33.226;-97.150;2023-11-21T08:40:07;11.60;99.90
17740;DHT22;8990;33.226;-97.150;2023-11-21T08:42:37;11.60;99.90
17740;DHT22;8990;33.226;-97.150;2023-11-21T08:45:07;11.60;99.90
17740;DHT22;8990;33.226;-97.150;2023-11-21T08:47:38;11.60;99.90
17740;DHT22;8990;33.226;-97.150;2023-11-21T08:50:08;11.60;99.90
17740;DHT22;8990;33.226;-97.150;2023-11-21T08:52:37;11.50;99.90
17740;DHT22;8990;33.226;-97.150;2023-11-21T08:55:07;11.50;99.90
17740;DHT22;8990;33.226;-97.150;2023-11-21T08:57:40;11.50;99.90
17740;DHT22;8990;33.226;-97.150;2023-11-21T09:00:10;11.50;99.90
17740;DHT22;8990;33.226;-97.150;2023-11-21T09:02:41;11.50;99.90
17740;DHT22;8990;33.226;-97.150;2023-11-21T09:05:10;11.50;99.90
17740;DHT22;8990;33.226;-97.150;2023-11-21T09:07:41;11.50;99.90
17740;DHT22;8990;33.226;-97.150;2023-11-21T09:10:10;11.40;99.90
17740;DHT22;8990;33.226;-97.150;2023-11-21T09:12:39;11.50;99.90
17740;DHT22;8990;33.226;-97.150;2023-11-21T09:15:10;11.50;99.90
17740;DHT22;8990;33.226;-97.150;2023-11-21T09:17:41;11.40;99.90
17740;DHT22;8990;33.226;-97.150;2023-11-21T09:20:12;11.50;99.90
17740;DHT22;8990;33.226;-97.150;2023-11-21T09:22:41;11.50;99.90
17740;DHT22;8990;33.226;-97.150;2023-11-21T09:25:11;11.40;99.90
17740;DHT22;8990;33.226;-97.150;2023-11-21T09:27:40;11.40;99.90
17740;DHT22;8990;33.226;-97.150;2023-11-21T09:30:10;11.40;99.90
17740;DHT22;8990;33.226;-97.150;2023-11-21T09:32:42;11.30;99.90
17740;DHT22;8990;33.226;-97.150;2023-11-21T09:35:12;11.30;99.90
17740;DHT22;8990;33.226;-97.150;2023-11-21T09:37:42;11.30;99.90
17740;DHT22;8990;33.226;-97.150;2023-11-21T09:40:13;11.30;99.90
17740;DHT22;8990;33.226;-97.150;2023-11-21T09:42:51;11.30;99.90
17740;DHT22;8990;33.226;-97.150;2023-11-21T09:45:26;11.20;99.90
17740;DHT22;8990;33.226;-97.150;2023-11-21T09:47:57;11.20;99.90
17740;DHT22;8990;33.226;-97.150;2023-11-21T09:50:26;11.20;99.90
17740;DHT22;8990;33.226;-97.150;2023-11-21T09:53:00;11.10;99.90
17740;DHT22;8990;33.226;-97.150;2023-11-21T09:55:34;11.10;99.90
17740;DHT22;8990;33.226;-97.150;2023-11-21T09:58:05;11.10;99.90
17740;DHT22;8990;33.226;-97.150;2023-11-21T10:00:35;11.10;99.90
17740;DHT22;8990;33.226;-97.150;2023-11-21T10:03:06;11.10;99.90
17740;DHT22;8990;33.226;-97.150;2023-11-21T10:05:35;11.10;99.90
17740;DHT22;8990;33.226;-97.150;2023-11-21T10:08:07;11.00;99.90
17740;DHT22;8990;33.226;-97.150;2023-11-21T10:10:38;11.00;99.90
17740;DHT22;8990;33.226;-97.150;2023-11-21T10:13:12;11.00;99.90
17740;DHT22;8990;33.226;-97.150;2023-11-21T10:15:44;11.00;99.90
17740;DHT22;8990;33.226;-97.150;2023-11-21T10:18:17;10.90;99.90
17740;DHT22;8990;33.226;-97.150;2023-11-21T10:20:46;10.90;99.90
17740;DHT22;8990;33.226;-97.150;2023-11-21T10:23:19;10.90;99.90
17740;DHT22;8990;33.226;-97.150;2023-11-21T10:25:49;10.80;99.90
17740;DHT22;8990;33.226;-97.150;2023-11-21T10:28:18;10.80;99.90
17740;DHT22;8990;33.226;-97.150;2023-11-21T10:30:47;10.80;99.90
17740;DHT22;8990;33.226;-97.150;2023-11-21T10:33:18;10.80;99.90
17740;DHT22;8990;33.226;-97.150;2023-11-21T10:35:55;10.80;99.90
17740;DHT22;8990;33.226;-97.150;2023-11-21T10:38:24;10.70;99.90
17740;DHT22;8990;33.226;-97.150;2023-11-21T10:40:54;10.70;99.90
17740;DHT22;8990;33.226;-97.150;2023-11-21T10:43:25;10.70;99.90
17740;DHT22;8990;33.226;-97.150;2023-11-21T10:45:58;10.70;99.90
17740;DHT22;8990;33.226;-97.150;2023-11-21T10:48:29;10.60;99.90
17740;DHT22;8990;33.226;-97.150;2023-11-21T10:51:07;10.60;99.90
17740;DHT22;8990;33.226;-97.150;2023-11-21T10:53:39;10.70;99.90
17740;DHT22;8990;33.226;-97.150;2023-11-21T10:56:09;10.60;99.90
17740;DHT22;8990;33.226;-97.150;2023-11-21T10:58:45;10.60;99.90
17740;DHT22;8990;33.226;-97.150;2023-11-21T11:01:15;10.50;99.90
17740;DHT22;8990;33.226;-97.150;2023-11-21T11:03:51;10.50;99.90
17740;DHT22;8990;33.226;-97.150;2023-11-21T11:06:22;10.50;99.90
17740;DHT22;8990;33.226;-97.150;2023-11-21T11:08:54;10.60;99.90
17740;DHT22;8990;33.226;-97.150;2023-11-21T11:11:23;10.50;99.90
17740;DHT22;8990;33.226;-97.150;2023-11-21T11:13:53;10.50;99.90
17740;DHT22;8990;33.226;-97.150;2023-11-21T11:16:22;10.60;99.90
17740;DHT22;8990;33.226;-97.150;2023-11-21T11:18:54;10.60;99.90
17740;DHT22;8990;33.226;-97.150;2023-11-21T11:21:34;10.60;99.90
17740;DHT22;8990;33.226;-97.150;2023-11-21T11:24:19;10.60;99.90
17740;DHT22;8990;33.226;-97.150;2023-11-21T11:26:55;10.60;99.90
17740;DHT22;8990;33.226;-97.150;2023-11-21T11:29:32;10.50;99.90
17740;DHT22;8990;33.226;-97.150;2023-11-21T11:32:10;10.50;99.90
17740;DHT22;8990;33.226;-97.150;2023-11-21T11:34:48;10.50;99.90
17740;DHT22;8990;33.226;-97.150;2023-11-21T11:37:22;10.50;99.90
17740;DHT22;8990;33.226;-97.150;2023-11-21T11:39:51;10.50;99.90
17740;DHT22;8990;33.226;-97.150;2023-11-21T11:42:22;10.50;99.90
17740;DHT22;8990;33.226;-97.150;2023-11-21T11:44:52;10.40;99.90
17740;DHT22;8990;33.226;-97.150;2023-11-21T11:47:24;10.40;99.90
17740;DHT22;8990;33.226;-97.150;2023-11-21T11:50:01;10.40;99.90
17740;DHT22;8990;33.226;-97.150;2023-11-21T11:52:38;10.50;99.90
17740;DHT22;8990;33.226;-97.150;2023-11-21T11:55:08;10.50;99.90
17740;DHT22;8990;33.226;-97.150;2023-11-21T11:57:41;10.40;99.90
17740;DHT22;8990;33.226;-97.150;2023-11-21T12:00:14;10.50;99.90
17740;DHT22;8990;33.226;-97.150;2023-11-21T12:02:48;10.50;99.90
17740;DHT22;8990;33.226;-97.150;2023-11-21T12:05:20;10.60;99.90
17740;DHT22;8990;33.226;-97.150;2023-11-21T12:07:51;10.60;99.90
17740;DHT22;8990;33.226;-97.150;2023-11-21T12:10:22;10.60;99.90
17740;DHT22;8990;33.226;-97.150;2023-11-21T12:12:52;10.60;99.90
17740;DHT22;8990;33.226;-97.150;2023-11-21T12:15:22;10.60;99.90
17740;DHT22;8990;33.226;-97.150;2023-11-21T12:17:52;10.70;99.90
17740;DHT22;8990;33.226;-97.150;2023-11-21T12:20:23;10.70;99.90
17740;DHT22;8990;33.226;-97.150;2023-11-21T12:22:54;10.60;99.90
17740;DHT22;8990;33.226;-97.150;2023-11-21T12:25:24;10.60;99.90
17740;DHT22;8990;33.226;-97.150;2023-11-21T12:27:57;10.70;99.90
17740;DHT22;8990;33.226;-97.150;2023-11-21T12:30:27;10.60;99.90
17740;DHT22;8990;33.226;-97.150;2023-11-21T12:32:59;10.70;99.90
17740;DHT22;8990;33.226;-97.150;2023-11-21T12:35:31;10.60;99.90
17740;DHT22;8990;33.226;-97.150;2023-11-21T12:38:02;10.70;99.90
17740;DHT22;8990;33.226;-97.150;2023-11-21T12:40:32;10.70;99.90
17740;DHT22;8990;33.226;-97.150;2023-11-21T12:43:01;10.70;99.90
17740;DHT22;8990;33.226;-97.150;2023-11-21T12:45:31;10.70;99.90
17740;DHT22;8990;33.226;-97.150;2023-11-21T12:48:00;10.70;99.90
17740;DHT22;8990;33.226;-97.150;2023-11-21T12:50:36;10.70;99.90
17740;DHT22;8990;33.226;-97.150;2023-11-21T12:53:06;10.70;99.90
17740;DHT22;8990;33.226;-97.150;2023-11-21T12:55:37;10.70;99.90
17740;DHT22;8990;33.226;-97.150;2023-11-21T12:58:09;10.70;99.90
17740;DHT22;8990;33.226;-97.150;2023-11-21T13:00:41;10.70;99.90
17740;DHT22;8990;33.226;-97.150;2023-11-21T13:03:13;10.70;99.90
17740;DHT22;8990;33.226;-97.150;2023-11-21T13:05:48;10.70;99.90
17740;DHT22;8990;33.226;-97.150;2023-11-21T13:08:23;10.80;99.90
17740;DHT22;8990;33.226;-97.150;2023-11-21T13:10:53;10.80;99.90
17740;DHT22;8990;33.226;-97.150;2023-11-21T13:13:23;10.70;99.90
17740;DHT22;8990;33.226;-97.150;2023-11-21T13:15:55;10.70;99.90
17740;DHT22;8990;33.226;-97.150;2023-11-21T13:18:25;10.70;99.90
17740;DHT22;8990;33.226;-97.150;2023-11-21T13:20:56;10.70;99.90
17740;DHT22;8990;33.226;-97.150;2023-11-21T13:23:26;10.70;99.90
17740;DHT22;8990;33.226;-97.150;2023-11-21T13:25:56;10.70;99.90
17740;DHT22;8990;33.226;-97.150;2023-11-21T13:28:31;10.70;99.90
17740;DHT22;8990;33.226;-97.150;2023-11-21T13:31:00;10.70;99.90
17740;DHT22;8990;33.226;-97.150;2023-11-21T13:33:36;10.70;99.90
17740;DHT22;8990;33.226;-97.150;2023-11-21T13:36:08;10.70;99.90
17740;DHT22;8990;33.226;-97.150;2023-11-21T13:38:37;10.80;99.90
17740;DHT22;8990;33.226;-97.150;2023-11-21T13:41:09;10.70;99.90
17740;DHT22;8990;33.226;-97.150;2023-11-21T13:43:41;10.70;99.90
17740;DHT22;8990;33.226;-97.150;2023-11-21T13:46:17;10.70;99.90
17740;DHT22;8990;33.226;-97.150;2023-11-21T13:48:49;10.70;99.90
17740;DHT22;8990;33.226;-97.150;2023-11-21T13:51:24;10.70;99.90
17740;DHT22;8990;33.226;-97.150;2023-11-21T13:54:04;10.60;99.90
17740;DHT22;8990;33.226;-97.150;2023-11-21T13:56:36;10.70;99.90
17740;DHT22;8990;33.226;-97.150;2023-11-21T13:59:07;10.70;99.90
17740;DHT22;8990;33.226;-97.150;2023-11-21T14:01:45;10.70;99.90
17740;DHT22;8990;33.226;-97.150;2023-11-21T14:04:22;10.70;99.90
17740;DHT22;8990;33.226;-97.150;2023-11-21T14:07:15;10.70;99.90
17740;DHT22;8990;33.226;-97.150;2023-11-21T14:09:58;10.60;99.90
17740;DHT22;8990;33.226;-97.150;2023-11-21T14:12:27;10.60;99.90
17740;DHT22;8990;33.226;-97.150;2023-11-21T14:15:00;10.60;99.90
17740;DHT22;8990;33.226;-97.150;2023-11-21T14:17:30;10.70;99.90
17740;DHT22;8990;33.226;-97.150;2023-11-21T14:19:58;10.70;99.90
17740;DHT22;8990;33.226;-97.150;2023-11-21T14:22:30;10.70;99.90
17740;DHT22;8990;33.226;-97.150;2023-11-21T14:24:59;10.70;99.90
17740;DHT22;8990;33.226;-97.150;2023-11-21T14:27:30;10.70;99.90
17740;DHT22;8990;33.226;-97.150;2023-11-21T14:30:00;10.80;99.90
17740;DHT22;8990;33.226;-97.150;2023-11-21T14:32:29;10.80;99.90
17740;DHT22;8990;33.226;-97.150;2023-11-21T14:34:58;10.80;99.90
17740;DHT22;8990;33.226;-97.150;2023-11-21T14:37:27;10.80;99.90
17740;DHT22;8990;33.226;-97.150;2023-11-21T14:39:57;10.80;99.90
17740;DHT22;8990;33.226;-97.150;2023-11-21T14:42:26;10.90;99.90
17740;DHT22;8990;33.226;-97.150;2023-11-21T14:44:56;10.90;99.90
17740;DHT22;8990;33.226;-97.150;2023-11-21T14:47:30;10.90;99.90
17740;DHT22;8990;33.226;-97.150;2023-11-21T14:49:59;10.90;99.90
17740;DHT22;8990;33.226;-97.150;2023-11-21T14:52:42;11.00;99.90
17740;DHT22;8990;33.226;-97.150;2023-11-21T14:55:24;10.90;99.90
17740;DHT22;8990;33.226;-97.150;2023-11-21T14:57:58;11.00;99.90
17740;DHT22;8990;33.226;-97.150;2023-11-21T15:00:30;11.00;99.90
17740;DHT22;8990;33.226;-97.150;2023-11-21T15:03:09;11.00;99.90
17740;DHT22;8990;33.226;-97.150;2023-11-21T15:05:37;11.10;99.90
17740;DHT22;8990;33.226;-97.150;2023-11-21T15:08:07;11.10;99.90
17740;DHT22;8990;33.226;-97.150;2023-11-21T15:10:50;11.20;99.90
17740;DHT22;8990;33.226;-97.150;2023-11-21T15:13:22;11.30;99.90
17740;DHT22;8990;33.226;-97.150;2023-11-21T15:15:54;11.40;99.90
17740;DHT22;8990;33.226;-97.150;2023-11-21T15:18:21;11.50;99.90
17740;DHT22;8990;33.226;-97.150;2023-11-21T15:20:51;11.50;99.90
17740;DHT22;8990;33.226;-97.150;2023-11-21T15:23:22;11.50;99.90
17740;DHT22;8990;33.226;-97.150;2023-11-21T15:25:52;11.60;99.90
17740;DHT22;8990;33.226;-97.150;2023-11-21T15:28:21;11.50;99.90
17740;DHT22;8990;33.226;-97.150;2023-11-21T15:30:51;11.50;99.90
17740;DHT22;8990;33.226;-97.150;2023-11-21T15:33:20;11.50;99.90
17740;DHT22;8990;33.226;-97.150;2023-11-21T15:35:49;11.60;99.90